Time;durP1;ratioP1;P1;durP2;ratioP2;P2;SDS_P1;SDS_P2;PMS_P1;PMS_P2;Temp;Humidity;BMP_temperature;BMP_pressure;BME280_temperature;BME280_humidity;BME280_pressure;Samples;Min_cycle;Max_cycle;Signal;HPM_P1;HPM_P2
2022/12/27 00:02:03;;;;;;;0.80;0.80;;;;;;;;;;5053199;28;20222;-75
2022/12/27 00:04:29;;;;;;;0.80;0.80;;;;;;;;;;5053413;28;20199;-76
2022/12/27 00:06:55;;;;;;;0.70;0.70;;;;;;;;;;5053625;28;20179;-75
2022/12/27 00:09:21;;;;;;;0.70;0.70;;;;;;;;;;5054137;28;20185;-75
2022/12/27 00:11:47;;;;;;;0.80;0.80;;;;;;;;;;5054129;28;20207;-75
2022/12/27 00:14:13;;;;;;;0.70;0.70;;;;;;;;;;5053750;28;20191;-77
2022/12/27 00:16:39;;;;;;;0.70;0.70;;;;;;;;;;5055128;28;20214;-76
2022/12/27 00:19:05;;;;;;;0.73;0.73;;;;;;;;;;5054742;28;20171;-75
2022/12/27 00:21:31;;;;;;;0.73;0.73;;;;;;;;;;5054191;28;20182;-76
2022/12/27 00:23:57;;;;;;;0.70;0.70;;;;;;;;;;5053434;28;20191;-76
2022/12/27 00:26:26;;;;;;;0.70;0.70;;;;;;;;;;5054176;28;20186;-77
2022/12/27 00:28:52;;;;;;;0.70;0.70;;;;;;;;;;5053611;28;20241;-77
2022/12/27 00:31:20;;;;;;;0.80;0.80;;;;;;;;;;5122879;22;20230;-79
2022/12/27 00:33:46;;;;;;;0.67;0.67;;;;;;;;;;5097623;28;20198;-79
2022/12/27 00:36:15;;;;;;;0.70;0.70;;;;;;;;;;5095250;28;20209;-79
2022/12/27 00:38:41;;;;;;;0.70;0.70;;;;;;;;;;5097687;28;20178;-79
2022/12/27 00:41:07;;;;;;;0.80;0.80;;;;;;;;;;5096988;28;20587;-78
2022/12/27 00:43:33;;;;;;;0.70;0.70;;;;;;;;;;5097739;28;20238;-79
2022/12/27 00:46:00;;;;;;;0.80;0.80;;;;;;;;;;5095454;28;20173;-78
2022/12/27 00:48:25;;;;;;;0.73;0.73;;;;;;;;;;5093806;28;20185;-76
2022/12/27 00:50:57;;;;;;;0.80;0.80;;;;;;;;;;5093675;28;20178;-77
2022/12/27 00:53:23;;;;;;;0.80;0.80;;;;;;;;;;5093178;28;20539;-77
2022/12/27 00:55:49;;;;;;;0.70;0.70;;;;;;;;;;5093393;28;20212;-77
2022/12/27 00:58:15;;;;;;;0.80;0.80;;;;;;;;;;5093461;28;20265;-76
2022/12/27 01:00:41;;;;;;;0.80;0.80;;;;;;;;;;5093537;28;20188;-77
2022/12/27 01:03:07;;;;;;;0.80;0.80;;;;;;;;;;5092940;28;20247;-78
2022/12/27 01:05:35;;;;;;;0.70;0.70;;;;;;;;;;5093277;28;20182;-76
2022/12/27 01:08:01;;;;;;;0.60;0.60;;;;;;;;;;5093438;28;20184;-77
2022/12/27 01:10:27;;;;;;;0.83;0.83;;;;;;;;;;5093248;28;20618;-76
2022/12/27 01:12:53;;;;;;;0.70;0.70;;;;;;;;;;5092896;28;20600;-77
2022/12/27 01:15:19;;;;;;;0.63;0.63;;;;;;;;;;5093202;28;20213;-77
2022/12/27 01:17:45;;;;;;;0.70;0.70;;;;;;;;;;5093237;28;20174;-76
2022/12/27 01:20:11;;;;;;;0.70;0.70;;;;;;;;;;5092962;28;20180;-77
2022/12/27 01:22:37;;;;;;;0.77;0.77;;;;;;;;;;5093009;28;20186;-78
2022/12/27 01:25:03;;;;;;;0.70;0.70;;;;;;;;;;5093028;28;20510;-79
2022/12/27 01:27:29;;;;;;;0.70;0.70;;;;;;;;;;5093085;28;20177;-80
2022/12/27 01:29:54;;;;;;;0.70;0.70;;;;;;;;;;5092937;28;20830;-76
2022/12/27 01:32:21;;;;;;;0.70;0.70;;;;;;;;;;5092288;28;20594;-77
2022/12/27 01:34:47;;;;;;;0.87;0.87;;;;;;;;;;5092394;28;20194;-75
2022/12/27 01:37:12;;;;;;;0.80;0.80;;;;;;;;;;5092782;28;20533;-77
2022/12/27 01:39:38;;;;;;;0.77;0.77;;;;;;;;;;5092837;28;20631;-76
2022/12/27 01:44:54;;;;;;;0.80;0.80;;;;;;;;;;5092901;28;20769;-76
2022/12/27 01:47:41;;;;;;;0.70;0.70;;;;;;;;;;5092529;28;20180;-77
2022/12/27 01:50:07;;;;;;;0.77;0.77;;;;;;;;;;5092633;28;20211;-77
2022/12/27 01:52:37;;;;;;;0.70;0.70;;;;;;;;;;5092207;28;20540;-76
2022/12/27 01:55:10;;;;;;;0.70;0.70;;;;;;;;;;5092405;28;20296;-76
2022/12/27 01:57:36;;;;;;;0.73;0.73;;;;;;;;;;5092498;28;20184;-76
2022/12/27 02:00:02;;;;;;;0.80;0.80;;;;;;;;;;5092629;28;20256;-76
2022/12/27 02:02:28;;;;;;;0.80;0.80;;;;;;;;;;5092023;28;20204;-76
2022/12/27 02:04:54;;;;;;;0.70;0.70;;;;;;;;;;5092272;28;20757;-77
2022/12/27 02:07:23;;;;;;;0.80;0.80;;;;;;;;;;5092142;28;20174;-78
2022/12/27 02:09:51;;;;;;;0.73;0.73;;;;;;;;;;5092378;28;20264;-78
2022/12/27 02:12:18;;;;;;;0.90;0.90;;;;;;;;;;5091936;28;20173;-77
2022/12/27 02:14:45;;;;;;;0.70;0.70;;;;;;;;;;5092746;28;20232;-77
2022/12/27 02:17:13;;;;;;;0.80;0.80;;;;;;;;;;5092675;28;20186;-77
2022/12/27 02:19:39;;;;;;;0.80;0.80;;;;;;;;;;5092667;28;20182;-78
2022/12/27 02:22:24;;;;;;;0.73;0.73;;;;;;;;;;5093884;28;20189;-78
2022/12/27 02:25:08;;;;;;;0.80;0.80;;;;;;;;;;5092418;28;20274;-78
2022/12/27 02:27:37;;;;;;;0.90;0.90;;;;;;;;;;5092041;28;20238;-77
2022/12/27 02:30:07;;;;;;;0.70;0.70;;;;;;;;;;5091876;28;20189;-77
2022/12/27 02:32:40;;;;;;;0.73;0.73;;;;;;;;;;5091543;28;20184;-77
2022/12/27 02:35:18;;;;;;;0.77;0.77;;;;;;;;;;5092081;28;20209;-77
2022/12/27 02:37:54;;;;;;;0.70;0.70;;;;;;;;;;5091940;28;20172;-78
2022/12/27 02:54:31;;;;;;;0.80;0.80;;;;;;;;;;5095877;28;20688;-78
2022/12/27 02:57:09;;;;;;;0.90;0.90;;;;;;;;;;5095895;28;20312;-77
2022/12/27 03:05:44;;;;;;;0.70;0.70;;;;;;;;;;5095614;28;20652;-77
2022/12/27 03:08:12;;;;;;;0.80;0.80;;;;;;;;;;5095508;28;20182;-77
2022/12/27 03:16:55;;;;;;;0.80;0.80;;;;;;;;;;5095449;28;20231;-77
2022/12/27 03:33:46;;;;;;;0.90;0.90;;;;;;;;;;5052459;28;20694;-77
2022/12/27 03:39:20;;;;;;;0.70;0.70;;;;;;;;;;5095386;28;20188;-77
2022/12/27 03:44:35;;;;;;;0.80;0.80;;;;;;;;;;5094876;28;20220;-76
2022/12/27 03:47:07;;;;;;;0.90;0.90;;;;;;;;;;5094677;28;20614;-76
2022/12/27 03:49:45;;;;;;;0.70;0.70;;;;;;;;;;5094901;28;20186;-77
2022/12/27 03:52:17;;;;;;;0.90;0.90;;;;;;;;;;5094681;28;20739;-78
2022/12/27 03:54:44;;;;;;;0.90;0.90;;;;;;;;;;5095179;28;20194;-77
2022/12/27 03:57:12;;;;;;;0.90;0.90;;;;;;;;;;5094646;28;20549;-77
2022/12/27 03:59:38;;;;;;;0.90;0.90;;;;;;;;;;5095003;28;20239;-77
2022/12/27 04:02:05;;;;;;;0.80;0.80;;;;;;;;;;5094441;28;20576;-77
2022/12/27 04:04:31;;;;;;;0.90;0.90;;;;;;;;;;5094567;28;20201;-79
2022/12/27 04:06:57;;;;;;;0.80;0.80;;;;;;;;;;5094793;28;20178;-76
2022/12/27 04:36:50;;;;;;;0.87;0.87;;;;;;;;;;5121035;28;20219;-80
2022/12/27 04:39:16;;;;;;;0.80;0.80;;;;;;;;;;5120944;28;20158;-81
2022/12/27 04:55:54;;;;;;;0.90;0.90;;;;;;;;;;5119476;28;20212;-77
2022/12/27 04:58:20;;;;;;;0.87;0.87;;;;;;;;;;5116754;28;20178;-75
2022/12/27 05:03:30;;;;;;;0.80;0.80;;;;;;;;;;5083491;28;20200;-75
2022/12/27 05:05:56;;;;;;;0.87;0.87;;;;;;;;;;5090955;28;20173;-76
2022/12/27 05:14:01;;;;;;;0.90;0.90;;;;;;;;;;5092337;28;20660;-76
2022/12/27 05:16:41;;;;;;;1.00;1.00;;;;;;;;;;5092916;28;20209;-76
2022/12/27 05:19:08;;;;;;;0.87;0.87;;;;;;;;;;5093012;28;20170;-76
2022/12/27 05:21:37;;;;;;;0.90;0.90;;;;;;;;;;5092768;28;20174;-76
2022/12/27 05:26:48;;;;;;;0.90;0.90;;;;;;;;;;5092810;28;20657;-76
2022/12/27 05:29:15;;;;;;;0.90;0.90;;;;;;;;;;5092850;28;20585;-75
2022/12/27 05:31:41;;;;;;;0.90;0.90;;;;;;;;;;5092460;28;20190;-76
2022/12/27 05:34:07;;;;;;;0.90;0.90;;;;;;;;;;5092230;28;20662;-76
2022/12/27 05:36:33;;;;;;;1.00;1.00;;;;;;;;;;5084846;28;20284;-76
2022/12/27 05:38:59;;;;;;;0.80;0.80;;;;;;;;;;5082654;28;20175;-77
2022/12/27 05:41:25;;;;;;;0.83;0.83;;;;;;;;;;5081095;28;20520;-76
2022/12/27 05:43:51;;;;;;;0.90;0.90;;;;;;;;;;5079629;28;20289;-76
2022/12/27 05:46:18;;;;;;;0.90;0.90;;;;;;;;;;5072228;28;20206;-77
2022/12/27 05:48:45;;;;;;;0.80;0.80;;;;;;;;;;5072042;28;20265;-75
2022/12/27 05:51:12;;;;;;;0.90;0.90;;;;;;;;;;5072284;28;20178;-75
2022/12/27 05:53:38;;;;;;;0.90;0.90;;;;;;;;;;5071551;28;20285;-75
2022/12/27 05:56:04;;;;;;;0.90;0.90;;;;;;;;;;5072007;28;20206;-75
2022/12/27 05:58:32;;;;;;;0.80;0.80;;;;;;;;;;5072233;28;20277;-75
2022/12/27 06:00:58;;;;;;;0.90;0.90;;;;;;;;;;5079056;28;20189;-74
2022/12/27 06:03:24;;;;;;;0.90;0.90;;;;;;;;;;5091701;28;20193;-75
2022/12/27 06:05:50;;;;;;;0.80;0.80;;;;;;;;;;5092267;28;20182;-77
2022/12/27 06:08:16;;;;;;;0.80;0.80;;;;;;;;;;5092045;28;20162;-75
2022/12/27 06:10:42;;;;;;;0.80;0.80;;;;;;;;;;5092115;28;20220;-75
2022/12/27 06:13:08;;;;;;;0.80;0.80;;;;;;;;;;5091536;28;20194;-74
2022/12/27 06:15:34;;;;;;;0.80;0.80;;;;;;;;;;5091790;28;20232;-75
2022/12/27 06:18:02;;;;;;;0.77;0.77;;;;;;;;;;5092162;28;20166;-75
2022/12/27 06:20:28;;;;;;;0.80;0.80;;;;;;;;;;5092170;28;20181;-78
2022/12/27 06:22:54;;;;;;;0.90;0.90;;;;;;;;;;5091429;28;20527;-77
2022/12/27 06:25:20;;;;;;;0.90;0.90;;;;;;;;;;5092224;28;20174;-76
2022/12/27 06:27:46;;;;;;;0.83;0.83;;;;;;;;;;5092681;28;20173;-76
2022/12/27 06:32:42;;;;;;;0.90;0.90;;;;;;;;;;5053532;28;20238;-77
2022/12/27 06:35:10;;;;;;;0.70;0.70;;;;;;;;;;5056419;28;20179;-76
2022/12/27 06:37:36;;;;;;;0.83;0.83;;;;;;;;;;5055899;28;20183;-77
2022/12/27 06:40:01;;;;;;;0.80;0.80;;;;;;;;;;5055762;28;20178;-78
2022/12/27 06:42:29;;;;;;;0.90;0.90;;;;;;;;;;5056146;28;20671;-77
2022/12/27 06:44:55;;;;;;;0.90;0.90;;;;;;;;;;5056417;28;20195;-77
2022/12/27 06:47:21;;;;;;;0.90;0.90;;;;;;;;;;5051778;28;20182;-77
2022/12/27 06:49:47;;;;;;;0.80;0.80;;;;;;;;;;5051657;28;20212;-76
2022/12/27 06:52:13;;;;;;;0.90;0.90;;;;;;;;;;5051038;28;20272;-76
2022/12/27 06:54:40;;;;;;;0.90;0.90;;;;;;;;;;5051151;28;20218;-75
2022/12/27 06:57:06;;;;;;;0.87;0.87;;;;;;;;;;5052590;28;20217;-76
2022/12/27 06:59:32;;;;;;;0.80;0.80;;;;;;;;;;5051291;28;20172;-77
2022/12/27 07:01:58;;;;;;;0.90;0.90;;;;;;;;;;5051157;28;20181;-76
2022/12/27 07:04:24;;;;;;;0.90;0.90;;;;;;;;;;5051233;28;20278;-76
2022/12/27 07:06:50;;;;;;;0.80;0.80;;;;;;;;;;5051235;28;20179;-75
2022/12/27 07:09:16;;;;;;;1.00;1.00;;;;;;;;;;5051303;28;20179;-76
2022/12/27 07:11:42;;;;;;;0.90;0.90;;;;;;;;;;5051052;28;20640;-72
2022/12/27 07:14:09;;;;;;;0.80;0.80;;;;;;;;;;5050844;28;20199;-72
2022/12/27 07:16:35;;;;;;;0.90;0.90;;;;;;;;;;5050887;28;20223;-73
2022/12/27 07:19:07;;;;;;;0.80;0.80;;;;;;;;;;5046149;28;20214;-73
2022/12/27 07:21:34;;;;;;;0.90;0.90;;;;;;;;;;5036236;28;20647;-74
2022/12/27 07:23:59;;;;;;;0.90;0.90;;;;;;;;;;5045252;28;20198;-72
2022/12/27 07:26:33;;;;;;;0.80;0.80;;;;;;;;;;5052832;28;20179;-76
2022/12/27 07:29:00;;;;;;;0.87;0.87;;;;;;;;;;5054209;28;20503;-79
2022/12/27 07:31:28;;;;;;;0.90;0.90;;;;;;;;;;5052885;28;20191;-76
2022/12/27 07:33:54;;;;;;;0.90;0.90;;;;;;;;;;5051763;28;20684;-76
2022/12/27 07:36:28;;;;;;;0.90;0.90;;;;;;;;;;5056265;28;20230;-76
2022/12/27 07:38:54;;;;;;;0.90;0.90;;;;;;;;;;5055554;28;20663;-77
2022/12/27 07:41:20;;;;;;;0.87;0.87;;;;;;;;;;5056113;28;20183;-77
2022/12/27 07:43:47;;;;;;;1.00;1.00;;;;;;;;;;5054860;28;20192;-77
2022/12/27 07:46:14;;;;;;;0.80;0.80;;;;;;;;;;5057034;28;20225;-76
2022/12/27 07:48:41;;;;;;;0.80;0.80;;;;;;;;;;5055312;28;20258;-76
2022/12/27 07:51:06;;;;;;;0.80;0.80;;;;;;;;;;5056694;28;20257;-76
2022/12/27 07:53:33;;;;;;;0.80;0.80;;;;;;;;;;5056426;28;20191;-75
2022/12/27 07:55:59;;;;;;;0.70;0.70;;;;;;;;;;5060099;28;20222;-76
2022/12/27 07:58:25;;;;;;;0.60;0.60;;;;;;;;;;5065431;28;20209;-77
2022/12/27 08:00:51;;;;;;;0.63;0.63;;;;;;;;;;5063375;28;20179;-76
2022/12/27 08:03:17;;;;;;;0.60;0.60;;;;;;;;;;5067238;28;20210;-76
2022/12/27 08:05:54;;;;;;;0.60;0.60;;;;;;;;;;5068931;28;20210;-76
2022/12/27 08:08:22;;;;;;;0.60;0.60;;;;;;;;;;5068013;28;20259;-76
2022/12/27 08:10:48;;;;;;;0.60;0.60;;;;;;;;;;5055063;28;20179;-77
2022/12/27 08:13:14;;;;;;;0.47;0.47;;;;;;;;;;5054603;28;20219;-77
2022/12/27 08:15:41;;;;;;;0.40;0.40;;;;;;;;;;5054796;28;20203;-78
2022/12/27 08:18:07;;;;;;;0.50;0.50;;;;;;;;;;5054899;28;20179;-77
2022/12/27 08:20:33;;;;;;;0.50;0.50;;;;;;;;;;5055713;28;20265;-77
2022/12/27 08:22:59;;;;;;;0.40;0.40;;;;;;;;;;5054323;28;20211;-77
2022/12/27 08:25:27;;;;;;;0.50;0.50;;;;;;;;;;5054840;28;20198;-76
2022/12/27 08:27:53;;;;;;;0.43;0.43;;;;;;;;;;5055160;28;20706;-77
2022/12/27 08:30:19;;;;;;;0.40;0.40;;;;;;;;;;5054520;28;20179;-77
2022/12/27 08:32:45;;;;;;;0.47;0.47;;;;;;;;;;5056170;28;20179;-77
2022/12/27 08:35:11;;;;;;;0.40;0.40;;;;;;;;;;5054360;28;20190;-76
2022/12/27 08:37:37;;;;;;;0.40;0.40;;;;;;;;;;5057376;28;20186;-77
2022/12/27 08:40:03;;;;;;;0.30;0.30;;;;;;;;;;5055739;28;20171;-77
2022/12/27 08:42:29;;;;;;;0.37;0.37;;;;;;;;;;5056812;28;20837;-77
2022/12/27 08:44:55;;;;;;;0.30;0.30;;;;;;;;;;5054452;28;20191;-77
2022/12/27 08:47:20;;;;;;;0.30;0.30;;;;;;;;;;5054529;28;20531;-77
2022/12/27 08:49:46;;;;;;;0.37;0.37;;;;;;;;;;5055555;28;20547;-77
2022/12/27 08:52:12;;;;;;;0.33;0.33;;;;;;;;;;5054798;28;20578;-78
2022/12/27 08:54:38;;;;;;;0.40;0.40;;;;;;;;;;5061045;28;20282;-79
2022/12/27 08:57:04;;;;;;;0.30;0.30;;;;;;;;;;5055485;28;20214;-77
2022/12/27 08:59:30;;;;;;;0.40;0.40;;;;;;;;;;5054509;28;20179;-77
2022/12/27 09:01:56;;;;;;;0.30;0.30;;;;;;;;;;5057505;28;20171;-80
2022/12/27 09:04:22;;;;;;;0.30;0.30;;;;;;;;;;5046821;28;20672;-78
2022/12/27 09:06:48;;;;;;;0.40;0.40;;;;;;;;;;5035479;28;20168;-76
2022/12/27 09:09:14;;;;;;;0.33;0.33;;;;;;;;;;5038313;28;20218;-78
2022/12/27 09:11:42;;;;;;;0.30;0.30;;;;;;;;;;5043435;28;20557;-78
2022/12/27 09:14:09;;;;;;;0.37;0.37;;;;;;;;;;5047531;28;20209;-79
2022/12/27 09:16:35;;;;;;;0.40;0.40;;;;;;;;;;5059331;28;20210;-78
2022/12/27 09:19:02;;;;;;;0.40;0.40;;;;;;;;;;5064260;28;20264;-77
2022/12/27 09:21:30;;;;;;;0.40;0.40;;;;;;;;;;5059374;28;20679;-77
2022/12/27 09:23:56;;;;;;;0.40;0.40;;;;;;;;;;5060377;28;20195;-79
2022/12/27 09:26:23;;;;;;;0.40;0.40;;;;;;;;;;5072815;28;20163;-79
2022/12/27 09:28:50;;;;;;;0.30;0.30;;;;;;;;;;5072404;28;20263;-79
2022/12/27 09:31:16;;;;;;;0.40;0.40;;;;;;;;;;5060844;28;20560;-79
2022/12/27 09:33:43;;;;;;;0.40;0.40;;;;;;;;;;5055206;28;20198;-78
2022/12/27 09:36:10;;;;;;;0.40;0.40;;;;;;;;;;5062172;28;20223;-78
2022/12/27 09:38:37;;;;;;;0.30;0.30;;;;;;;;;;5057737;28;20186;-78
2022/12/27 09:41:21;;;;;;;0.30;0.30;;;;;;;;;;5063986;28;20183;-79
2022/12/27 09:43:47;;;;;;;0.40;0.40;;;;;;;;;;5069186;28;20210;-79
2022/12/27 09:46:16;;;;;;;0.40;0.40;;;;;;;;;;5063498;28;20171;-78
2022/12/27 09:48:42;;;;;;;0.40;0.40;;;;;;;;;;5057200;28;20175;-79
2022/12/27 09:51:12;;;;;;;0.30;0.30;;;;;;;;;;5061225;28;20183;-77
2022/12/27 09:54:01;;;;;;;0.40;0.40;;;;;;;;;;5040325;28;20200;-78
2022/12/27 09:56:32;;;;;;;0.40;0.40;;;;;;;;;;5053450;28;20229;-78
2022/12/27 09:59:13;;;;;;;0.30;0.30;;;;;;;;;;5052331;28;20175;-80
2022/12/27 10:01:43;;;;;;;0.50;0.50;;;;;;;;;;5062168;28;20179;-79
2022/12/27 10:04:11;;;;;;;0.50;0.50;;;;;;;;;;5039441;28;20196;-77
2022/12/27 10:06:37;;;;;;;0.30;0.30;;;;;;;;;;5052993;28;20224;-78
2022/12/27 10:09:22;;;;;;;0.50;0.50;;;;;;;;;;5044837;28;20266;-80
2022/12/27 10:11:51;;;;;;;0.50;0.50;;;;;;;;;;5054814;28;20322;-79
2022/12/27 10:14:16;;;;;;;0.40;0.40;;;;;;;;;;5053712;28;20201;-79
2022/12/27 10:16:42;;;;;;;0.50;0.50;;;;;;;;;;5044494;28;20287;-79
2022/12/27 10:19:24;;;;;;;0.40;0.40;;;;;;;;;;5056844;28;20251;-78
2022/12/27 10:21:53;;;;;;;0.40;0.40;;;;;;;;;;5053538;28;20221;-79
2022/12/27 10:24:22;;;;;;;0.40;0.40;;;;;;;;;;5058030;28;20203;-79
2022/12/27 10:26:48;;;;;;;0.40;0.40;;;;;;;;;;5065415;28;20194;-79
2022/12/27 10:29:20;;;;;;;0.40;0.40;;;;;;;;;;5050335;28;20183;-77
2022/12/27 10:31:46;;;;;;;0.30;0.30;;;;;;;;;;5051379;28;20210;-77
2022/12/27 10:34:15;;;;;;;0.40;0.40;;;;;;;;;;5046140;28;20194;-77
2022/12/27 10:36:41;;;;;;;0.30;0.30;;;;;;;;;;5044591;28;20203;-80
2022/12/27 10:39:17;;;;;;;0.30;0.30;;;;;;;;;;5050268;28;20176;-79
2022/12/27 10:41:49;;;;;;;0.40;0.40;;;;;;;;;;5037534;28;20172;-79
2022/12/27 10:44:15;;;;;;;0.30;0.30;;;;;;;;;;5048633;28;20227;-77
2022/12/27 10:46:43;;;;;;;0.43;0.43;;;;;;;;;;5038988;28;20616;-78
2022/12/27 10:49:23;;;;;;;0.33;0.33;;;;;;;;;;5049499;28;20180;-77
2022/12/27 10:51:50;;;;;;;0.30;0.30;;;;;;;;;;5046354;28;20198;-78
2022/12/27 10:54:27;;;;;;;0.30;0.30;;;;;;;;;;5043344;28;20200;-79
2022/12/27 10:56:54;;;;;;;0.43;0.43;;;;;;;;;;5051856;28;20298;-76
2022/12/27 10:59:24;;;;;;;0.40;0.40;;;;;;;;;;5049036;28;20232;-77
2022/12/27 11:02:02;;;;;;;0.40;0.40;;;;;;;;;;5043161;28;20246;-78
2022/12/27 11:04:29;;;;;;;0.40;0.40;;;;;;;;;;5040021;28;20207;-77
2022/12/27 11:07:01;;;;;;;0.40;0.40;;;;;;;;;;5038607;28;20228;-77
2022/12/27 11:09:31;;;;;;;0.50;0.50;;;;;;;;;;5049355;28;20263;-78
2022/12/27 11:12:16;;;;;;;0.30;0.30;;;;;;;;;;5051053;28;20301;-79
2022/12/27 11:15:09;;;;;;;0.43;0.43;;;;;;;;;;5054873;28;20195;-76
2022/12/27 11:17:38;;;;;;;0.50;0.50;;;;;;;;;;5044992;28;20659;-76
2022/12/27 11:20:18;;;;;;;0.50;0.50;;;;;;;;;;5044086;28;20236;-76
2022/12/27 11:22:52;;;;;;;0.40;0.40;;;;;;;;;;5058620;28;20179;-78
2022/12/27 11:25:18;;;;;;;0.50;0.50;;;;;;;;;;5043940;28;20198;-76
2022/12/27 11:27:46;;;;;;;0.53;0.53;;;;;;;;;;5046355;28;20204;-80
2022/12/27 11:30:22;;;;;;;0.50;0.50;;;;;;;;;;5055879;28;20175;-78
2022/12/27 11:32:48;;;;;;;0.60;0.60;;;;;;;;;;5044277;28;20215;-79
2022/12/27 11:35:19;;;;;;;0.50;0.50;;;;;;;;;;5063249;28;20183;-80
2022/12/27 11:37:46;;;;;;;0.50;0.50;;;;;;;;;;5068036;28;20175;-79
2022/12/27 11:40:23;;;;;;;0.47;0.47;;;;;;;;;;5067181;28;20229;-79
2022/12/27 11:43:09;;;;;;;0.63;0.63;;;;;;;;;;5060474;28;20182;-78
2022/12/27 11:45:40;;;;;;;0.60;0.60;;;;;;;;;;5064199;28;20183;-78
2022/12/27 11:48:12;;;;;;;0.50;0.50;;;;;;;;;;5058140;28;20212;-80
2022/12/27 11:50:57;;;;;;;0.50;0.50;;;;;;;;;;5060575;28;20175;-78
2022/12/27 11:53:43;;;;;;;0.60;0.60;;;;;;;;;;5059856;28;20191;-79
2022/12/27 11:56:28;;;;;;;0.53;0.53;;;;;;;;;;5061084;28;20280;-78
2022/12/27 11:59:17;;;;;;;0.60;0.60;;;;;;;;;;5058743;28;20175;-77
2022/12/27 12:02:01;;;;;;;0.50;0.50;;;;;;;;;;5058630;28;20660;-76
2022/12/27 12:04:42;;;;;;;0.50;0.50;;;;;;;;;;5058489;28;20203;-77
2022/12/27 12:07:11;;;;;;;0.60;0.60;;;;;;;;;;5056457;28;20325;-75
2022/12/27 12:10:01;;;;;;;0.47;0.47;;;;;;;;;;5054059;28;20186;-76
2022/12/27 12:12:36;;;;;;;0.50;0.50;;;;;;;;;;5055200;28;20206;-76
2022/12/27 12:15:17;;;;;;;0.50;0.50;;;;;;;;;;5055504;28;20225;-77
2022/12/27 12:18:02;;;;;;;0.40;0.40;;;;;;;;;;5060017;28;20191;-78
2022/12/27 12:20:59;;;;;;;0.40;0.40;;;;;;;;;;5057644;28;20221;-77
2022/12/27 12:23:34;;;;;;;0.50;0.50;;;;;;;;;;5056571;28;20249;-78
2022/12/27 12:26:17;;;;;;;0.47;0.47;;;;;;;;;;5056806;28;20274;-77
2022/12/27 12:28:54;;;;;;;0.40;0.40;;;;;;;;;;5055535;28;20189;-77
2022/12/27 12:31:39;;;;;;;0.50;0.50;;;;;;;;;;5084069;22;20218;-80
2022/12/27 12:34:14;;;;;;;0.50;0.50;;;;;;;;;;5076062;28;20675;-77
2022/12/27 12:36:40;;;;;;;0.50;0.50;;;;;;;;;;5071488;28;20289;-76
2022/12/27 12:39:13;;;;;;;0.50;0.50;;;;;;;;;;5065111;28;20250;-78
2022/12/27 12:41:57;;;;;;;0.60;0.60;;;;;;;;;;5066558;28;20599;-78
2022/12/27 12:44:23;;;;;;;0.50;0.50;;;;;;;;;;5071505;28;20240;-77
2022/12/27 12:47:00;;;;;;;0.50;0.50;;;;;;;;;;5067296;28;20183;-74
2022/12/27 12:49:45;;;;;;;0.50;0.50;;;;;;;;;;5064331;28;20174;-76
2022/12/27 12:52:14;;;;;;;0.40;0.40;;;;;;;;;;5056545;28;20229;-77
2022/12/27 12:54:43;;;;;;;0.50;0.50;;;;;;;;;;5067789;28;20572;-75
2022/12/27 12:57:35;;;;;;;0.60;0.60;;;;;;;;;;5065977;28;20375;-75
2022/12/27 13:00:14;;;;;;;0.50;0.50;;;;;;;;;;5070593;28;20212;-76
2022/12/27 13:02:42;;;;;;;0.40;0.40;;;;;;;;;;5064739;28;20178;-77
2022/12/27 13:05:23;;;;;;;0.50;0.50;;;;;;;;;;5087946;28;20183;-75
2022/12/27 13:08:05;;;;;;;0.50;0.50;;;;;;;;;;5091408;28;20197;-75
2022/12/27 13:10:50;;;;;;;0.43;0.43;;;;;;;;;;5081047;28;20181;-75
2022/12/27 13:13:28;;;;;;;0.50;0.50;;;;;;;;;;5087369;28;20183;-76
2022/12/27 13:16:09;;;;;;;0.63;0.63;;;;;;;;;;5091193;28;20205;-76
2022/12/27 13:18:41;;;;;;;0.50;0.50;;;;;;;;;;5079627;28;20181;-75
2022/12/27 13:21:23;;;;;;;0.50;0.50;;;;;;;;;;5086920;28;20182;-76
2022/12/27 13:23:52;;;;;;;0.50;0.50;;;;;;;;;;5071135;28;20228;-75
2022/12/27 13:26:42;;;;;;;0.50;0.50;;;;;;;;;;5056623;28;20266;-75
2022/12/27 13:29:26;;;;;;;0.50;0.50;;;;;;;;;;5063966;28;20214;-76
2022/12/27 13:31:52;;;;;;;0.47;0.47;;;;;;;;;;5055550;28;20195;-75
2022/12/27 13:34:18;;;;;;;0.50;0.50;;;;;;;;;;5068551;28;20199;-76
2022/12/27 13:36:44;;;;;;;0.60;0.60;;;;;;;;;;5062794;28;20239;-75
2022/12/27 13:39:19;;;;;;;0.60;0.60;;;;;;;;;;5058110;28;20175;-75
2022/12/27 13:42:04;;;;;;;0.50;0.50;;;;;;;;;;5056825;28;20268;-75
2022/12/27 13:44:48;;;;;;;0.60;0.60;;;;;;;;;;5052512;28;20194;-74
2022/12/27 13:47:25;;;;;;;0.60;0.60;;;;;;;;;;5054058;28;20550;-75
2022/12/27 13:50:14;;;;;;;0.60;0.60;;;;;;;;;;5065925;28;20184;-75
2022/12/27 13:52:55;;;;;;;0.70;0.70;;;;;;;;;;5055600;28;20174;-75
2022/12/27 13:55:31;;;;;;;0.60;0.60;;;;;;;;;;5061608;28;20651;-75
2022/12/27 13:58:03;;;;;;;0.60;0.60;;;;;;;;;;5066751;28;20215;-76
2022/12/27 14:00:35;;;;;;;0.70;0.70;;;;;;;;;;5064769;28;20175;-76
2022/12/27 14:03:04;;;;;;;0.80;0.80;;;;;;;;;;5064395;28;20529;-76
2022/12/27 14:05:43;;;;;;;0.70;0.70;;;;;;;;;;5058328;28;20190;-75
2022/12/27 14:08:18;;;;;;;0.60;0.60;;;;;;;;;;5061151;28;20193;-74
2022/12/27 14:10:46;;;;;;;0.70;0.70;;;;;;;;;;5060295;28;20183;-74
2022/12/27 14:13:14;;;;;;;0.60;0.60;;;;;;;;;;5047147;28;20203;-75
2022/12/27 14:15:40;;;;;;;0.80;0.80;;;;;;;;;;5057585;28;20620;-76
2022/12/27 14:18:17;;;;;;;0.60;0.60;;;;;;;;;;5060285;28;20175;-75
2022/12/27 14:20:59;;;;;;;0.80;0.80;;;;;;;;;;5057313;28;20639;-75
2022/12/27 14:23:44;;;;;;;0.70;0.70;;;;;;;;;;5056177;28;20199;-76
2022/12/27 14:26:28;;;;;;;0.63;0.63;;;;;;;;;;5052917;28;20258;-83
2022/12/27 14:29:00;;;;;;;0.73;0.73;;;;;;;;;;5051191;28;20237;-78
2022/12/27 14:31:40;;;;;;;0.70;0.70;;;;;;;;;;5059426;28;20198;-77
2022/12/27 14:34:25;;;;;;;0.77;0.77;;;;;;;;;;5062860;28;20236;-79
2022/12/27 14:37:08;;;;;;;0.70;0.70;;;;;;;;;;5066255;28;20232;-76
2022/12/27 14:39:53;;;;;;;0.70;0.70;;;;;;;;;;5048520;28;20183;-76
2022/12/27 14:42:37;;;;;;;0.70;0.70;;;;;;;;;;5047320;28;20636;-77
2022/12/27 14:45:21;;;;;;;0.70;0.70;;;;;;;;;;5048946;28;20175;-76
2022/12/27 14:48:05;;;;;;;0.70;0.70;;;;;;;;;;5048612;28;20728;-76
2022/12/27 14:50:58;;;;;;;0.83;0.83;;;;;;;;;;5048437;28;20281;-78
2022/12/27 14:53:30;;;;;;;0.60;0.60;;;;;;;;;;5058546;28;20199;-77
2022/12/27 14:56:17;;;;;;;0.70;0.70;;;;;;;;;;5053964;28;20293;-76
2022/12/27 14:58:50;;;;;;;0.80;0.80;;;;;;;;;;5056610;28;20194;-76
2022/12/27 15:01:37;;;;;;;0.70;0.70;;;;;;;;;;5053502;28;20173;-78
2022/12/27 15:04:05;;;;;;;0.70;0.70;;;;;;;;;;5059732;28;20281;-79
2022/12/27 15:06:37;;;;;;;0.70;0.70;;;;;;;;;;5058734;28;20359;-79
2022/12/27 15:09:03;;;;;;;0.80;0.80;;;;;;;;;;5057143;28;20208;-85
2022/12/27 15:11:48;;;;;;;0.60;0.60;;;;;;;;;;5057155;28;20183;-78
2022/12/27 15:14:31;;;;;;;0.70;0.70;;;;;;;;;;5064368;28;20202;-77
2022/12/27 15:16:57;;;;;;;0.70;0.70;;;;;;;;;;5057240;28;20229;-82
2022/12/27 15:19:41;;;;;;;0.73;0.73;;;;;;;;;;5064307;28;20178;-77
2022/12/27 15:22:22;;;;;;;0.70;0.70;;;;;;;;;;5056741;28;20215;-79
2022/12/27 15:24:54;;;;;;;0.70;0.70;;;;;;;;;;5057044;28;20203;-77
2022/12/27 15:27:37;;;;;;;0.53;0.53;;;;;;;;;;5059421;28;20175;-77
2022/12/27 15:30:36;;;;;;;0.77;0.77;;;;;;;;;;5069003;28;20272;-84
2022/12/27 15:33:07;;;;;;;0.80;0.80;;;;;;;;;;5016841;28;20718;-76
2022/12/27 15:35:33;;;;;;;0.60;0.60;;;;;;;;;;5061897;28;20174;-77
2022/12/27 15:38:19;;;;;;;0.70;0.70;;;;;;;;;;5060948;28;20180;-77
2022/12/27 15:40:46;;;;;;;0.60;0.60;;;;;;;;;;5058506;28;20209;-77
2022/12/27 15:43:21;;;;;;;0.67;0.67;;;;;;;;;;5058623;28;20668;-78
2022/12/27 15:45:59;;;;;;;0.70;0.70;;;;;;;;;;5063535;28;20272;-77
2022/12/27 15:48:28;;;;;;;0.73;0.73;;;;;;;;;;5058126;28;20317;-78
2022/12/27 15:51:13;;;;;;;0.70;0.70;;;;;;;;;;5067437;28;20550;-78
2022/12/27 15:53:48;;;;;;;0.73;0.73;;;;;;;;;;5058428;28;20202;-77
2022/12/27 15:56:34;;;;;;;0.70;0.70;;;;;;;;;;5062256;28;20538;-76
2022/12/27 15:59:19;;;;;;;0.70;0.70;;;;;;;;;;5062580;28;20214;-78
2022/12/27 16:01:45;;;;;;;0.63;0.63;;;;;;;;;;5065242;28;20181;-77
2022/12/27 16:04:29;;;;;;;0.80;0.80;;;;;;;;;;5073162;28;20994;-76
2022/12/27 16:06:55;;;;;;;0.70;0.70;;;;;;;;;;5066980;28;20186;-77
2022/12/27 16:09:24;;;;;;;0.70;0.70;;;;;;;;;;5056736;28;20331;-77
2022/12/27 16:12:02;;;;;;;0.70;0.70;;;;;;;;;;5058041;28;20635;-77
2022/12/27 16:14:30;;;;;;;0.70;0.70;;;;;;;;;;5054374;28;20256;-77
2022/12/27 16:17:02;;;;;;;0.70;0.70;;;;;;;;;;5060116;28;20207;-76
2022/12/27 16:19:54;;;;;;;0.70;0.70;;;;;;;;;;5065332;28;20182;-76
2022/12/27 16:22:32;;;;;;;0.70;0.70;;;;;;;;;;5071082;28;20749;-76
2022/12/27 16:24:58;;;;;;;0.70;0.70;;;;;;;;;;5073531;28;20281;-78
2022/12/27 16:27:28;;;;;;;0.80;0.80;;;;;;;;;;5071783;28;20170;-76
2022/12/27 16:29:55;;;;;;;0.70;0.70;;;;;;;;;;5068329;28;20189;-77
2022/12/27 16:32:23;;;;;;;0.70;0.70;;;;;;;;;;5056250;28;20209;-76
2022/12/27 16:34:50;;;;;;;0.77;0.77;;;;;;;;;;5068878;28;20202;-75
2022/12/27 16:37:24;;;;;;;0.60;0.60;;;;;;;;;;5065616;28;20225;-77
2022/12/27 16:39:52;;;;;;;0.70;0.70;;;;;;;;;;5073197;28;20174;-77
2022/12/27 16:42:23;;;;;;;0.70;0.70;;;;;;;;;;5072767;28;20182;-79
2022/12/27 16:44:52;;;;;;;0.77;0.77;;;;;;;;;;5072931;28;20277;-77
2022/12/27 16:47:30;;;;;;;0.73;0.73;;;;;;;;;;5064150;28;20187;-77
2022/12/27 16:50:15;;;;;;;0.70;0.70;;;;;;;;;;5053426;28;20189;-78
2022/12/27 16:52:52;;;;;;;0.70;0.70;;;;;;;;;;5053018;28;20203;-77